Brockton, Massachusetts
Current Conditions -  °F | °C
As of 1:53 AM on Saturday 01 Nov 2014 (Local Time) from KOWD Reporting Station
Broken Clouds Broken Clouds  
Wind Chill: 44°   Ceiling: 4400
Heat Index: 48°   Visibility: 10mi
Dew Point: 35°   Wind: 8mph
Humidity: 61%   Direction: 40°NE
Pressure: 29.91"   Gusts: NA
Location:  42.08°N, 71.02°W
Report Text: KOWD 010553Z AUTO 04007KT 10SM BKN044 09/02 A2991 RMK AO2 SLP129 T00890017 10100 20089 56017
Loading
Personal Weather Stations






























Interactive Weather Map
Tropical Storm Tracking
New forecast layout! Learn more

10-Day Weather Forecast

Advertisements
Track Severe Weather on mobile